createdAt,value
2022-09-22T00:01:19.817Z,2.87
2022-09-22T00:03:52.223Z,3.10
2022-09-22T00:06:27.452Z,2.80
2022-09-22T00:09:00.700Z,3.07
2022-09-22T00:11:36.054Z,3.13
2022-09-22T00:14:28.596Z,3.10
2022-09-22T00:16:57.628Z,3.07
2022-09-22T00:19:29.910Z,3.07
2022-09-22T00:21:56.737Z,3.30
2022-09-22T00:24:24.595Z,2.83
2022-09-22T00:26:53.419Z,3.10
2022-09-22T00:29:20.892Z,3.00
2022-09-22T00:31:47.728Z,3.03
2022-09-22T00:34:20.856Z,3.53
2022-09-22T00:36:48.248Z,3.43
2022-09-22T00:39:17.122Z,3.30
2022-09-22T00:41:47.488Z,3.80
2022-09-22T00:44:26.486Z,3.47
2022-09-22T00:47:26.911Z,3.13
2022-09-22T00:50:09.911Z,2.80
2022-09-22T00:52:39.646Z,2.97
2022-09-22T00:55:15.432Z,2.60
2022-09-22T00:57:44.345Z,2.60
2022-09-22T01:00:12.259Z,3.13
2022-09-22T01:02:39.574Z,2.60
2022-09-22T01:05:07.236Z,2.47
2022-09-22T01:07:34.255Z,2.60
2022-09-22T01:10:00.911Z,2.67
2022-09-22T01:12:30.929Z,2.70
2022-09-22T01:15:10.249Z,3.03
2022-09-22T01:17:46.256Z,2.83
2022-09-22T01:20:50.749Z,2.83
2022-09-22T01:23:41.645Z,3.10
2022-09-22T01:26:34.006Z,2.90
2022-09-22T01:29:26.081Z,2.77
2022-09-22T01:32:03.633Z,2.80
2022-09-22T01:34:39.456Z,3.00
2022-09-22T01:37:14.873Z,2.73
2022-09-22T01:40:07.666Z,2.93
2022-09-22T01:42:51.452Z,3.17
2022-09-22T01:45:23.803Z,3.27
2022-09-22T01:47:55.448Z,3.07
2022-09-22T01:50:27.637Z,3.27
2022-09-22T01:52:59.081Z,2.80
2022-09-22T01:55:36.359Z,2.60
2022-09-22T01:58:18.294Z,2.90
2022-09-22T02:00:52.049Z,3.30
2022-09-22T02:03:44.550Z,3.40
2022-09-22T02:06:20.983Z,3.23
2022-09-22T02:08:51.713Z,4.10
2022-09-22T02:11:18.412Z,3.07
2022-09-22T02:13:46.688Z,3.27
2022-09-22T02:16:15.272Z,3.23
2022-09-22T02:19:13.145Z,3.30
2022-09-22T02:21:43.785Z,3.10
2022-09-22T02:24:28.236Z,3.57
2022-09-22T02:26:57.456Z,3.00
2022-09-22T02:29:27.450Z,3.63
2022-09-22T02:31:56.783Z,3.63
2022-09-22T02:34:23.657Z,3.43
2022-09-22T02:37:08.548Z,3.23
2022-09-22T02:39:35.319Z,3.17
2022-09-22T02:42:25.158Z,3.10
2022-09-22T02:45:01.563Z,3.10
2022-09-22T02:47:57.149Z,3.20
2022-09-22T02:50:27.102Z,2.67
2022-09-22T02:53:10.040Z,3.10
2022-09-22T02:55:37.023Z,3.10
2022-09-22T02:58:03.866Z,2.93
2022-09-22T03:00:32.291Z,2.80
2022-09-22T03:02:59.468Z,3.00
2022-09-22T03:05:26.281Z,3.40
2022-09-22T03:07:52.907Z,2.80
2022-09-22T03:10:19.588Z,3.03
2022-09-22T03:13:09.166Z,3.73
2022-09-22T03:15:32.877Z,2.97
2022-09-22T03:17:59.707Z,3.33
2022-09-22T03:20:26.384Z,3.00
2022-09-22T03:22:53.061Z,2.80
2022-09-22T03:25:19.726Z,3.37
2022-09-22T03:27:46.592Z,3.40
2022-09-22T03:30:13.646Z,3.10
2022-09-22T03:32:40.467Z,3.90
2022-09-22T03:35:07.841Z,3.50
2022-09-22T03:37:34.914Z,3.40
2022-09-22T03:40:03.315Z,3.00
2022-09-22T03:42:30.380Z,3.03
2022-09-22T03:44:57.157Z,3.27
2022-09-22T03:47:24.020Z,2.87
2022-09-22T03:49:50.673Z,3.33
2022-09-22T03:52:17.333Z,3.00
2022-09-22T03:54:44.028Z,2.97
2022-09-22T03:57:10.670Z,3.50
2022-09-22T03:59:37.301Z,3.07
2022-09-22T04:02:04.645Z,3.40
2022-09-22T04:04:32.519Z,3.07
2022-09-22T04:07:03.433Z,3.50
2022-09-22T04:09:33.487Z,3.13
2022-09-22T04:12:00.872Z,3.20
2022-09-22T04:14:27.735Z,3.10
2022-09-22T04:16:54.511Z,3.63
2022-09-22T04:19:22.696Z,3.53
2022-09-22T04:21:53.242Z,2.70
2022-09-22T04:24:24.300Z,2.73
2022-09-22T04:27:15.203Z,3.10
2022-09-22T04:29:37.839Z,2.83
2022-09-22T04:32:05.135Z,2.70
2022-09-22T04:34:31.917Z,3.20
2022-09-22T04:36:58.667Z,3.30
2022-09-22T04:39:25.449Z,2.93
2022-09-22T04:41:52.260Z,3.10
2022-09-22T04:44:18.901Z,2.77
2022-09-22T04:46:46.216Z,3.00
2022-09-22T04:49:13.869Z,3.33
2022-09-22T04:51:40.865Z,2.70
2022-09-22T04:54:07.914Z,3.03
2022-09-22T04:56:34.611Z,3.00
2022-09-22T04:59:02.070Z,3.17
2022-09-22T05:01:28.873Z,3.27
2022-09-22T05:03:55.583Z,2.90
2022-09-22T05:06:22.265Z,3.10
2022-09-22T05:08:49.030Z,3.13
2022-09-22T05:11:15.867Z,3.73
2022-09-22T05:13:42.695Z,3.17
2022-09-22T05:16:09.431Z,3.60
2022-09-22T05:18:36.210Z,3.30
2022-09-22T05:21:02.859Z,3.77
2022-09-22T05:23:30.219Z,3.10
2022-09-22T05:25:56.944Z,3.27
2022-09-22T05:28:24.161Z,3.20
2022-09-22T05:30:51.520Z,3.67
2022-09-22T05:33:18.700Z,3.27
2022-09-22T05:35:45.609Z,3.90
2022-09-22T05:38:12.507Z,3.90
2022-09-22T05:40:39.159Z,3.73
2022-09-22T05:43:05.847Z,4.60
2022-09-22T05:45:32.525Z,4.00
2022-09-22T05:47:59.269Z,3.73
2022-09-22T05:50:26.039Z,3.93
2022-09-22T05:53:03.027Z,3.30
2022-09-22T05:55:29.730Z,3.87
2022-09-22T05:57:57.423Z,3.73
2022-09-22T06:00:24.121Z,4.03
2022-09-22T06:02:50.771Z,3.50
2022-09-22T06:05:19.501Z,3.50
2022-09-22T06:07:46.709Z,3.53
2022-09-22T06:10:13.414Z,3.53
2022-09-22T06:12:40.225Z,3.70
2022-09-22T06:15:07.692Z,3.40
2022-09-22T06:17:34.365Z,4.10
2022-09-22T06:20:01.241Z,3.93
2022-09-22T06:22:30.506Z,3.73
2022-09-22T06:24:57.055Z,3.57
2022-09-22T06:27:23.774Z,3.57
2022-09-22T06:29:50.381Z,3.70
2022-09-22T06:32:17.146Z,4.37
2022-09-22T06:34:45.679Z,3.77
2022-09-22T06:37:12.342Z,4.13
2022-09-22T06:39:39.034Z,3.40
2022-09-22T06:42:06.264Z,4.10
2022-09-22T06:44:34.711Z,4.00
2022-09-22T06:47:10.224Z,3.60
2022-09-22T06:49:36.845Z,4.03
2022-09-22T06:52:03.775Z,3.30
2022-09-22T06:54:30.481Z,3.77
2022-09-22T06:56:57.168Z,3.40
2022-09-22T06:59:24.713Z,3.07
2022-09-22T07:01:51.474Z,3.27
2022-09-22T07:04:19.460Z,3.17
2022-09-22T07:06:46.297Z,2.90
2022-09-22T07:09:12.990Z,3.27
2022-09-22T07:11:40.429Z,3.50
2022-09-22T07:14:08.615Z,3.70
2022-09-22T07:16:36.322Z,3.83
2022-09-22T07:19:04.769Z,4.10
2022-09-22T07:21:37.607Z,3.53
2022-09-22T07:24:05.466Z,4.00
2022-09-22T07:26:35.638Z,3.67
2022-09-22T07:29:06.127Z,4.17
2022-09-22T07:31:34.765Z,3.67
2022-09-22T07:34:01.854Z,3.63
2022-09-22T07:36:31.068Z,4.27
2022-09-22T07:39:04.003Z,3.30
2022-09-22T07:41:31.846Z,3.77
2022-09-22T07:44:19.148Z,4.03
2022-09-22T07:46:46.028Z,4.33
2022-09-22T07:49:15.160Z,4.20
2022-09-22T07:51:42.035Z,4.33
2022-09-22T07:54:08.674Z,4.00
2022-09-22T07:56:40.092Z,3.70
2022-09-22T07:59:10.638Z,4.13
2022-09-22T08:01:47.560Z,3.97
2022-09-22T08:04:16.566Z,4.10
2022-09-22T08:06:44.686Z,4.13
2022-09-22T08:09:12.059Z,3.67
2022-09-22T08:11:39.533Z,3.77
2022-09-22T08:14:08.453Z,3.70
2022-09-22T08:16:36.839Z,3.70
2022-09-22T08:19:10.685Z,3.60
2022-09-22T08:21:47.697Z,3.83
2022-09-22T08:24:21.210Z,3.90
2022-09-22T08:26:50.351Z,3.80
2022-09-22T08:29:17.045Z,4.10
2022-09-22T08:31:47.370Z,3.73
2022-09-22T08:34:16.258Z,3.43
2022-09-22T08:36:49.285Z,3.10
2022-09-22T08:39:17.668Z,3.70
2022-09-22T08:42:09.308Z,3.60
2022-09-22T08:44:42.236Z,3.13
2022-09-22T08:47:38.215Z,4.17
2022-09-22T08:50:52.567Z,4.03
2022-09-22T08:53:23.327Z,5.50
2022-09-22T08:56:02.934Z,10.30
2022-09-22T08:58:45.000Z,14.30
2022-09-22T09:01:25.460Z,15.13
2022-09-22T09:03:56.486Z,10.50
2022-09-22T09:06:37.794Z,8.13
2022-09-22T09:09:21.790Z,3.40
2022-09-22T09:12:16.545Z,4.10
2022-09-22T09:14:43.149Z,3.13
2022-09-22T09:17:30.720Z,5.73
2022-09-22T09:20:00.014Z,19.00
2022-09-22T09:22:43.670Z,22.50
2022-09-22T09:25:31.957Z,7.47
2022-09-22T09:28:06.481Z,5.70
2022-09-22T09:30:43.209Z,3.43
2022-09-22T09:33:29.147Z,4.50
2022-09-22T09:35:56.216Z,4.87
2022-09-22T09:38:30.301Z,3.43
2022-09-22T09:41:12.702Z,3.50
2022-09-22T09:43:45.525Z,2.97
2022-09-22T09:46:30.210Z,3.17
2022-09-22T09:48:58.567Z,2.73
2022-09-22T09:51:25.968Z,4.40
2022-09-22T09:53:55.215Z,2.70
2022-09-22T09:56:27.303Z,3.20
2022-09-22T09:59:14.691Z,3.03
2022-09-22T10:01:42.569Z,2.53
2022-09-22T10:04:18.836Z,2.40
2022-09-22T10:06:46.889Z,2.40
2022-09-22T10:09:24.588Z,2.10
2022-09-22T10:12:01.996Z,2.73
2022-09-22T10:14:33.626Z,2.30
2022-09-22T10:17:00.701Z,2.30
2022-09-22T10:19:32.577Z,1.87
2022-09-22T10:22:24.899Z,2.20
2022-09-22T10:24:57.766Z,1.70
2022-09-22T10:27:26.370Z,1.80
2022-09-22T10:30:13.011Z,2.60
2022-09-22T10:32:41.768Z,2.13
2022-09-22T10:35:29.421Z,2.10
2022-09-22T10:37:58.687Z,8.63
2022-09-22T10:40:27.347Z,15.27
2022-09-22T10:42:57.572Z,29.37
2022-09-22T10:45:42.332Z,17.93
2022-09-22T10:48:22.409Z,6.40
2022-09-22T10:51:09.830Z,5.97
2022-09-22T10:53:42.615Z,2.90
2022-09-22T10:56:29.025Z,2.80
2022-09-22T10:59:28.006Z,2.53
2022-09-22T11:02:26.026Z,11.07
2022-09-22T11:05:14.683Z,26.30
2022-09-22T11:08:15.482Z,13.73
2022-09-22T11:11:15.433Z,17.37
2022-09-22T11:13:49.532Z,6.10
2022-09-22T11:16:43.541Z,7.10
2022-09-22T11:19:24.804Z,4.30
2022-09-22T11:22:25.333Z,3.30
2022-09-22T11:25:06.779Z,3.50
2022-09-22T11:27:53.278Z,2.03
2022-09-22T11:30:22.997Z,3.40
2022-09-22T11:33:03.055Z,2.30
2022-09-22T11:35:44.358Z,2.10
2022-09-22T11:38:48.575Z,2.73
2022-09-22T11:41:25.379Z,1.33
2022-09-22T11:44:07.108Z,1.50
2022-09-22T11:46:43.056Z,1.20
2022-09-22T11:49:36.833Z,1.30
2022-09-22T11:52:29.397Z,1.60
2022-09-22T11:55:08.429Z,1.30
2022-09-22T11:57:40.551Z,1.33
2022-09-22T12:00:17.370Z,1.60
2022-09-22T12:02:55.012Z,1.60
2022-09-22T12:05:45.008Z,1.10
2022-09-22T12:08:16.553Z,1.57
2022-09-22T12:10:45.058Z,1.33
2022-09-22T12:13:16.514Z,1.70
2022-09-22T12:16:18.168Z,2.00
2022-09-22T12:18:49.018Z,1.23
2022-09-22T12:21:40.306Z,1.60
2022-09-22T12:24:09.350Z,1.70
2022-09-22T12:26:38.940Z,1.80
2022-09-22T12:29:27.479Z,1.83
2022-09-22T12:31:57.514Z,2.73
2022-09-22T12:34:32.677Z,1.90
2022-09-22T12:37:10.393Z,2.10
2022-09-22T12:39:46.755Z,2.47
2022-09-22T12:42:28.334Z,2.10
2022-09-22T12:45:03.955Z,1.33
2022-09-22T12:47:34.397Z,2.10
2022-09-22T12:50:06.842Z,2.30
2022-09-22T12:52:39.611Z,1.80
2022-09-22T12:55:29.930Z,1.57
2022-09-22T12:58:01.293Z,1.37
2022-09-22T13:00:37.351Z,1.97
2022-09-22T13:03:25.832Z,1.53
2022-09-22T13:05:53.855Z,1.53
2022-09-22T13:08:32.759Z,1.53
2022-09-22T13:10:59.440Z,1.30
2022-09-22T13:13:32.213Z,1.30
2022-09-22T13:16:01.620Z,1.57
2022-09-22T13:18:33.674Z,1.50
2022-09-22T13:21:03.353Z,1.30
2022-09-22T13:23:30.438Z,1.50
2022-09-22T13:26:12.335Z,5.93
2022-09-22T13:28:39.342Z,3.77
2022-09-22T13:31:17.149Z,4.60
2022-09-22T13:33:44.495Z,11.23
2022-09-22T13:36:16.636Z,5.63
2022-09-22T13:38:56.181Z,16.30
2022-09-22T13:41:29.674Z,30.07
2022-09-22T13:43:58.870Z,2.73
2022-09-22T13:46:39.364Z,7.03
2022-09-22T13:49:09.893Z,4.30
2022-09-22T13:51:36.908Z,2.33
2022-09-22T13:54:04.242Z,1.50
2022-09-22T13:56:32.390Z,1.40
2022-09-22T13:59:02.209Z,1.60
2022-09-22T14:01:30.510Z,1.70
2022-09-22T14:03:57.267Z,1.60
2022-09-22T14:06:32.385Z,1.47
2022-09-22T14:09:00.344Z,2.00
2022-09-22T14:11:32.041Z,1.57
2022-09-22T14:14:01.306Z,1.80
2022-09-22T14:16:42.219Z,1.43
2022-09-22T14:19:15.364Z,1.83
2022-09-22T14:21:49.554Z,1.57
2022-09-22T14:24:16.717Z,1.40
2022-09-22T14:27:00.261Z,2.07
2022-09-22T14:29:33.750Z,1.80
2022-09-22T14:32:16.501Z,1.80
2022-09-22T14:34:48.704Z,1.50
2022-09-22T14:37:24.084Z,2.13
2022-09-22T14:39:52.874Z,2.00
2022-09-22T14:42:25.732Z,1.53
2022-09-22T14:44:52.526Z,1.83
2022-09-22T14:47:26.390Z,1.30
2022-09-22T14:50:19.029Z,1.27
2022-09-22T14:53:17.026Z,1.90
2022-09-22T14:55:47.444Z,1.83
2022-09-22T14:58:18.214Z,6.20
2022-09-22T15:01:40.197Z,18.43
2022-09-22T15:04:27.358Z,11.80
2022-09-22T15:06:59.006Z,21.43
2022-09-22T15:09:34.134Z,6.37
2022-09-22T15:12:03.288Z,15.17
2022-09-22T15:14:42.557Z,11.30
2022-09-22T15:17:53.004Z,9.90
2022-09-22T15:20:24.954Z,7.03
2022-09-22T15:22:54.048Z,5.00
2022-09-22T15:25:21.684Z,8.07
2022-09-22T15:27:51.644Z,5.43
2022-09-22T15:30:18.953Z,6.40
2022-09-22T15:32:48.133Z,7.90
2022-09-22T15:35:18.941Z,4.57
2022-09-22T15:37:47.395Z,3.50
2022-09-22T15:40:23.369Z,2.83
2022-09-22T15:43:11.769Z,2.90
2022-09-22T15:45:39.281Z,3.07
2022-09-22T15:48:05.990Z,2.40
2022-09-22T15:50:33.283Z,2.70
2022-09-22T15:53:00.283Z,2.47
2022-09-22T15:55:27.024Z,2.73
2022-09-22T15:57:55.610Z,3.00
2022-09-22T16:00:28.483Z,2.50
2022-09-22T16:02:55.445Z,5.20
2022-09-22T16:05:22.680Z,18.03
2022-09-22T16:07:51.624Z,18.20
2022-09-22T16:10:23.481Z,19.10
2022-09-22T16:12:50.696Z,20.00
2022-09-22T16:15:17.962Z,20.13
2022-09-22T16:17:45.803Z,25.63
2022-09-22T16:20:15.275Z,8.50
2022-09-22T16:22:41.995Z,3.30
2022-09-22T16:25:11.223Z,2.07
2022-09-22T16:27:38.574Z,2.93
2022-09-22T16:30:06.161Z,3.23
2022-09-22T16:32:36.241Z,1.90
2022-09-22T16:35:03.805Z,2.40
2022-09-22T16:37:30.950Z,2.07
2022-09-22T16:39:57.703Z,2.10
2022-09-22T16:42:24.386Z,2.43
2022-09-22T16:44:51.057Z,1.50
2022-09-22T16:47:21.133Z,1.50
2022-09-22T16:49:49.498Z,2.40
2022-09-22T16:52:16.709Z,1.97
2022-09-22T16:54:44.132Z,1.67
2022-09-22T16:57:10.815Z,2.40
2022-09-22T16:59:38.071Z,2.30
2022-09-22T17:02:04.904Z,2.37
2022-09-22T17:04:32.372Z,2.50
2022-09-22T17:06:59.248Z,1.80
2022-09-22T17:09:26.945Z,1.90
2022-09-22T17:11:53.890Z,2.00
2022-09-22T17:14:21.477Z,1.80
2022-09-22T17:16:52.265Z,2.00
2022-09-22T17:19:24.416Z,2.20
2022-09-22T17:21:55.163Z,2.37
2022-09-22T17:24:23.438Z,2.40
2022-09-22T17:26:55.585Z,2.87
2022-09-22T17:29:25.054Z,2.00
2022-09-22T17:32:02.563Z,1.90
2022-09-22T17:34:31.457Z,11.10
2022-09-22T17:36:59.374Z,17.03
2022-09-22T17:39:28.242Z,26.97
2022-09-22T17:41:55.417Z,15.60
2022-09-22T17:44:22.733Z,17.57
2022-09-22T17:47:09.639Z,11.00
2022-09-22T17:49:56.351Z,8.17
2022-09-22T17:52:29.001Z,9.00
2022-09-22T17:55:06.874Z,7.13
2022-09-22T17:57:38.680Z,4.63
2022-09-22T18:00:08.688Z,3.57
2022-09-22T18:02:36.695Z,12.43
2022-09-22T18:05:08.945Z,11.63
2022-09-22T18:07:36.640Z,16.73
2022-09-22T18:10:06.780Z,9.23
2022-09-22T18:12:34.149Z,9.03
2022-09-22T18:15:02.251Z,7.30
2022-09-22T18:17:33.224Z,18.07
2022-09-22T18:20:00.254Z,7.10
2022-09-22T18:22:28.525Z,10.00
2022-09-22T18:24:56.131Z,16.47
2022-09-22T18:27:30.391Z,9.80
2022-09-22T18:30:00.330Z,10.80
2022-09-22T18:32:27.938Z,7.47
2022-09-22T18:34:55.243Z,4.20
2022-09-22T18:37:23.230Z,6.23
2022-09-22T18:39:50.519Z,4.40
2022-09-22T18:42:24.043Z,3.37
2022-09-22T18:44:52.087Z,3.03
2022-09-22T18:47:21.174Z,3.97
2022-09-22T18:49:50.086Z,3.20
2022-09-22T18:52:21.544Z,23.20
2022-09-22T18:54:48.805Z,17.27
2022-09-22T18:57:15.587Z,14.20
2022-09-22T18:59:42.445Z,15.10
2022-09-22T19:02:11.870Z,8.13
2022-09-22T19:04:39.269Z,4.73
2022-09-22T19:07:24.954Z,5.27
2022-09-22T19:09:52.882Z,5.10
2022-09-22T19:12:21.510Z,23.83
2022-09-22T19:14:57.078Z,5.17
2022-09-22T19:17:24.607Z,6.20
2022-09-22T19:19:51.587Z,3.67
2022-09-22T19:22:18.740Z,4.03
2022-09-22T19:24:46.199Z,3.23
2022-09-22T19:27:14.825Z,3.40
2022-09-22T19:29:42.275Z,2.97
2022-09-22T19:32:09.233Z,3.60
2022-09-22T19:34:36.077Z,3.00
2022-09-22T19:37:03.149Z,2.37
2022-09-22T19:39:30.952Z,2.70
2022-09-22T19:41:58.913Z,2.90
2022-09-22T19:44:27.089Z,2.93
2022-09-22T19:46:53.835Z,2.77
2022-09-22T19:49:21.824Z,2.83
2022-09-22T19:51:48.471Z,3.20
2022-09-22T19:54:15.234Z,2.90
2022-09-22T19:56:42.123Z,3.07
2022-09-22T19:59:08.741Z,2.80
2022-09-22T20:01:43.356Z,2.70
2022-09-22T20:04:15.258Z,2.67
2022-09-22T20:06:41.916Z,2.53
2022-09-22T20:09:09.162Z,3.10
2022-09-22T20:11:39.738Z,2.90
2022-09-22T20:14:20.191Z,2.90
2022-09-22T20:16:56.586Z,2.40
2022-09-22T20:19:25.395Z,2.80
2022-09-22T20:21:54.123Z,3.57
2022-09-22T20:24:22.738Z,3.00
2022-09-22T20:26:49.352Z,3.40
2022-09-22T20:29:16.787Z,3.20
2022-09-22T20:31:43.832Z,2.60
2022-09-22T20:34:15.021Z,2.60
2022-09-22T20:36:43.436Z,2.53
2022-09-22T20:39:15.215Z,2.13
2022-09-22T20:41:42.557Z,2.03
2022-09-22T20:44:15.687Z,2.67
2022-09-22T20:46:43.032Z,2.10
2022-09-22T20:49:14.311Z,3.03
2022-09-22T20:51:42.107Z,2.30
2022-09-22T20:54:09.357Z,1.90
2022-09-22T20:56:40.660Z,2.53
2022-09-22T20:59:08.826Z,2.03
2022-09-22T21:01:35.507Z,2.50
2022-09-22T21:04:02.359Z,2.43
2022-09-22T21:06:30.859Z,2.37
2022-09-22T21:09:16.852Z,2.20
2022-09-22T21:11:44.066Z,2.30
2022-09-22T21:14:11.145Z,2.27
2022-09-22T21:16:38.751Z,2.03
2022-09-22T21:19:07.366Z,2.07
2022-09-22T21:21:38.062Z,2.43
2022-09-22T21:24:04.997Z,2.00
2022-09-22T21:26:32.108Z,2.40
2022-09-22T21:28:59.484Z,2.23
2022-09-22T21:31:26.962Z,3.20
2022-09-22T21:33:54.502Z,4.27
2022-09-22T21:36:22.968Z,3.20
2022-09-22T21:38:55.101Z,2.43
2022-09-22T21:41:24.226Z,5.07
2022-09-22T21:43:51.155Z,9.90
2022-09-22T21:46:23.004Z,4.17
2022-09-22T21:48:49.817Z,3.43
2022-09-22T21:51:19.551Z,2.40
2022-09-22T21:53:51.402Z,2.50
2022-09-22T21:56:19.915Z,6.20
2022-09-22T21:58:48.638Z,2.50
2022-09-22T22:01:19.045Z,2.90
2022-09-22T22:03:47.216Z,2.70
2022-09-22T22:06:24.153Z,2.70
2022-09-22T22:09:01.550Z,2.50
2022-09-22T22:11:33.516Z,2.30
2022-09-22T22:14:02.171Z,2.90
2022-09-22T22:16:38.502Z,2.80
2022-09-22T22:19:07.254Z,2.90
2022-09-22T22:21:34.561Z,3.27
2022-09-22T22:24:19.022Z,3.00
2022-09-22T22:26:51.687Z,2.30
2022-09-22T22:29:20.915Z,2.40
2022-09-22T22:31:49.038Z,2.80
2022-09-22T22:34:18.206Z,2.70
2022-09-22T22:36:45.260Z,2.17
2022-09-22T22:39:13.132Z,2.80
2022-09-22T22:41:40.701Z,2.33
2022-09-22T22:44:08.379Z,2.33
2022-09-22T22:46:36.021Z,2.57
2022-09-22T22:49:03.072Z,2.33
2022-09-22T22:51:30.313Z,2.60
2022-09-22T22:53:57.026Z,3.77
2022-09-22T22:56:25.661Z,2.40
2022-09-22T22:58:52.860Z,2.63
2022-09-22T23:01:22.047Z,4.90
2022-09-22T23:03:52.224Z,8.53
2022-09-22T23:06:24.033Z,4.00
2022-09-22T23:08:51.763Z,4.20
2022-09-22T23:11:27.893Z,3.97
2022-09-22T23:13:59.500Z,3.37
2022-09-22T23:16:28.355Z,4.17
2022-09-22T23:18:59.018Z,5.80
2022-09-22T23:21:26.344Z,7.13
2022-09-22T23:23:54.794Z,5.10
2022-09-22T23:26:22.019Z,5.67
2022-09-22T23:28:48.680Z,6.07
2022-09-22T23:31:17.976Z,9.33
2022-09-22T23:33:46.625Z,4.03
2022-09-22T23:36:22.569Z,3.40
2022-09-22T23:38:53.711Z,3.50
2022-09-22T23:41:20.424Z,3.47
2022-09-22T23:43:47.112Z,3.60
2022-09-22T23:46:13.867Z,3.57
2022-09-22T23:48:40.573Z,3.80
2022-09-22T23:51:07.454Z,2.73
2022-09-22T23:53:36.171Z,3.80
2022-09-22T23:56:05.517Z,3.53
2022-09-22T23:58:33.181Z,3.50
